Arland, Wisconsin
Current Conditions -  °F | °C
As of 12:15 PM on Thursday 18 Dec 2014 (Local Time) from KUBE Reporting Station
Overcast Overcast  
Wind Chill: 15°   Ceiling: 800
Heat Index: 21°   Visibility: 10mi
Dew Point: 19°   Wind: 5mph
Humidity: 93%   Direction: 190°S
Pressure: 30.26"   Gusts: NA
Location:  45.3064°N, 92.1345°W
Report Text: KUBE 181815Z AUTO 19004KT 10SM OVC008 M06/M07 A3026 RMK AO2
Loading
Personal Weather Stations






























Interactive Weather Map New forecast layout! Learn more

10-Day Weather Forecast

Advertisements
Track Severe Weather on mobile